createdAt,value
2018-09-29T00:00:48.025Z,6.19
2018-09-29T00:03:14.961Z,6.17
2018-09-29T00:05:41.485Z,6.23
2018-09-29T00:08:08.406Z,6.15
2018-09-29T00:10:34.929Z,6.24
2018-09-29T00:13:01.933Z,6.31
2018-09-29T00:15:28.412Z,6.28
2018-09-29T00:17:55.626Z,6.24
2018-09-29T00:20:22.612Z,6.22
2018-09-29T00:22:49.501Z,6.10
2018-09-29T00:25:16.004Z,5.96
2018-09-29T00:27:42.489Z,5.83
2018-09-29T00:30:09.407Z,5.59
2018-09-29T00:32:35.913Z,5.37
2018-09-29T00:35:02.381Z,5.26
2018-09-29T00:37:32.441Z,5.22
2018-09-29T00:39:59.404Z,5.24
2018-09-29T00:42:25.913Z,5.26
2018-09-29T00:44:52.384Z,5.24
2018-09-29T00:47:18.878Z,5.24
2018-09-29T00:49:45.769Z,5.27
2018-09-29T00:52:12.261Z,5.21
2018-09-29T01:33:34.995Z,4.79
2018-09-29T01:36:01.698Z,4.81
2018-09-29T01:38:29.376Z,4.76
2018-09-29T01:40:56.231Z,4.71
2018-09-29T01:43:22.704Z,4.65
2018-09-29T01:45:49.202Z,4.65
2018-09-29T01:48:15.713Z,4.99
2018-09-29T01:50:42.469Z,5.12
2018-09-29T01:53:08.962Z,5.14
2018-09-29T01:55:35.435Z,5.15
2018-09-29T01:58:01.930Z,5.02
2018-09-29T02:00:28.793Z,4.92
2018-09-29T02:02:55.277Z,4.84
2018-09-29T02:05:21.756Z,4.85
2018-09-29T03:03:33.524Z,5.07
2018-09-29T03:06:00.148Z,4.82
2018-09-29T03:08:26.638Z,4.59
2018-09-29T03:10:53.121Z,4.49
2018-09-29T03:13:20.054Z,4.60
2018-09-29T04:00:00.487Z,3.44
2018-09-29T04:02:26.993Z,3.49
2018-09-29T04:25:41.658Z,4.05
2018-09-29T04:28:08.314Z,4.15
2018-09-29T04:30:34.949Z,3.93
2018-09-29T04:33:01.704Z,3.67
2018-09-29T04:35:28.210Z,3.42
2018-09-29T04:37:54.682Z,3.25
2018-09-29T04:40:21.156Z,3.22
2018-09-29T04:42:47.918Z,3.49
2018-09-29T04:45:14.425Z,3.37
2018-09-29T04:47:40.927Z,3.21
2018-09-29T05:05:42.499Z,3.15
2018-09-29T05:47:51.914Z,4.05
2018-09-29T05:50:18.582Z,4.15
2018-09-29T05:52:46.458Z,4.21
2018-09-29T05:55:13.087Z,4.19
2018-09-29T06:06:01.353Z,4.08
2018-09-29T06:08:29.061Z,3.84
2018-09-29T06:10:55.866Z,3.58
2018-09-29T06:13:28.075Z,3.52
2018-09-29T06:15:54.667Z,3.35
2018-09-29T06:18:22.125Z,3.34
2018-09-29T06:20:49.672Z,3.49
2018-09-29T06:27:00.388Z,3.79
2018-09-29T06:32:11.896Z,3.89
2018-09-29T06:34:39.155Z,3.85
2018-09-29T06:38:54.523Z,3.76
2018-09-29T07:08:12.322Z,5.17
2018-09-29T07:10:38.951Z,5.29
2018-09-29T07:13:05.794Z,5.45
2018-09-29T07:15:33.233Z,5.55
2018-09-29T07:17:59.757Z,5.58
2018-09-29T07:20:26.725Z,5.59
2018-09-29T07:22:54.163Z,5.74
2018-09-29T07:25:20.729Z,5.99
2018-09-29T08:09:06.154Z,9.05
2018-09-29T08:11:32.797Z,9.18
2018-09-29T08:13:59.674Z,9.30
2018-09-29T08:17:35.973Z,9.61
2018-09-29T08:20:06.570Z,9.75
2018-09-29T08:22:33.892Z,10.01
2018-09-29T08:25:00.373Z,10.13
2018-09-29T08:27:28.886Z,10.23
2018-09-29T08:29:55.479Z,10.30
2018-09-29T08:34:56.074Z,10.46
2018-09-29T08:37:22.648Z,10.52
2018-09-29T08:42:24.596Z,10.90
2018-09-29T08:44:52.246Z,10.94
2018-09-29T08:47:18.885Z,11.02
2018-09-29T08:49:46.757Z,11.17
2018-09-29T08:56:14.261Z,11.45
2018-09-29T09:03:24.692Z,11.64
2018-09-29T10:20:28.292Z,13.81
2018-09-29T11:20:25.210Z,14.88
2018-09-29T11:22:53.202Z,14.60
2018-09-29T12:17:39.045Z,15.62
2018-09-29T13:44:08.335Z,16.26
2018-09-29T13:46:35.002Z,16.58
2018-09-29T13:53:45.386Z,16.99
2018-09-29T13:56:12.404Z,16.69
2018-09-29T13:58:39.969Z,16.62
2018-09-29T14:01:06.590Z,16.70
2018-09-29T15:53:43.224Z,21.28
2018-09-29T16:17:42.813Z,20.79
2018-09-29T17:00:59.166Z,14.40
2018-09-29T17:08:31.775Z,13.12
2018-09-29T17:33:41.434Z,11.32
2018-09-29T18:07:54.500Z,10.50
2018-09-29T18:10:21.732Z,10.32
2018-09-29T18:39:44.608Z,9.38
2018-09-29T18:42:12.858Z,9.42
2018-09-29T18:44:39.564Z,9.36
2018-09-29T18:47:06.517Z,9.34
2018-09-29T18:49:32.988Z,9.35
2018-09-29T18:51:59.647Z,9.36
2018-09-29T18:54:27.462Z,9.32
2018-09-29T18:56:54.813Z,9.34
2018-09-29T18:59:21.435Z,9.42
2018-09-29T19:01:48.252Z,9.50
2018-09-29T19:04:14.741Z,9.50
2018-09-29T19:06:41.266Z,9.51
2018-09-29T19:09:09.195Z,9.37
2018-09-29T19:11:36.469Z,9.18
2018-09-29T19:14:03.725Z,8.86
2018-09-29T19:16:30.561Z,8.55
2018-09-29T19:18:57.032Z,8.46
2018-09-29T19:27:04.634Z,8.62
2018-09-29T19:29:31.413Z,8.49
2018-09-29T19:44:23.929Z,8.64
2018-09-29T19:46:50.849Z,8.72
2018-09-29T19:49:23.298Z,8.85
2018-09-29T19:51:50.803Z,8.86
2018-09-29T19:54:19.196Z,8.86
2018-09-29T19:56:46.463Z,8.84
2018-09-29T19:59:13.765Z,8.66
2018-09-29T20:01:45.656Z,8.38
2018-09-29T20:20:09.369Z,7.94
2018-09-29T20:22:36.041Z,7.88
2018-09-29T20:35:32.599Z,7.91
2018-09-29T20:47:48.548Z,7.24
2018-09-29T21:03:11.729Z,7.38
2018-09-29T21:05:39.102Z,7.34
2018-09-29T21:08:06.243Z,7.22
2018-09-29T21:10:33.037Z,7.06
2018-09-29T21:13:02.731Z,6.92
2018-09-29T21:17:35.301Z,6.92
2018-09-29T21:26:05.176Z,6.59
2018-09-29T21:28:31.800Z,6.28
2018-09-29T21:30:58.809Z,6.05
2018-09-29T21:47:06.333Z,7.49
2018-09-29T21:49:34.536Z,7.07
2018-09-29T21:52:02.818Z,6.56
2018-09-29T21:54:29.872Z,6.22
2018-09-29T21:56:58.505Z,6.08
2018-09-29T21:59:26.477Z,5.82
2018-09-29T22:01:53.119Z,5.65
2018-09-29T22:04:21.004Z,5.45
2018-09-29T22:06:48.183Z,5.28
2018-09-29T22:09:14.816Z,5.19
2018-09-29T22:11:42.823Z,5.39
2018-09-29T22:14:10.815Z,5.81
2018-09-29T22:16:37.780Z,6.66
2018-09-29T22:19:04.812Z,7.41
2018-09-29T22:21:32.664Z,7.18
2018-09-29T22:23:59.346Z,6.65
2018-09-29T22:26:26.812Z,6.40
2018-09-29T22:28:55.877Z,6.70
2018-09-29T22:31:22.441Z,6.60
2018-09-29T22:33:49.953Z,6.56
2018-09-29T22:36:17.740Z,6.72
2018-09-29T22:38:46.182Z,7.06
2018-09-29T22:45:07.165Z,6.81
2018-09-29T22:47:33.859Z,6.62
2018-09-29T22:52:32.256Z,6.40
2018-09-29T22:54:58.891Z,6.44
2018-09-29T22:57:25.408Z,6.81
2018-09-29T22:59:52.240Z,6.97
2018-09-29T23:02:18.709Z,6.59
2018-09-29T23:04:45.236Z,6.23
2018-09-29T23:07:12.174Z,5.94
2018-09-29T23:09:38.656Z,5.73
2018-09-29T23:12:05.150Z,5.71
2018-09-29T23:14:33.075Z,5.62
2018-09-29T23:23:19.569Z,5.16
2018-09-29T23:25:47.035Z,4.89
2018-09-29T23:28:14.145Z,4.86
2018-09-29T23:30:40.624Z,5.25
2018-09-29T23:43:39.336Z,6.67
2018-09-29T23:46:06.629Z,5.84
2018-09-29T23:48:33.482Z,5.37
2018-09-29T23:50:59.962Z,5.08
2018-09-29T23:53:26.428Z,5.04
2018-09-29T23:55:53.236Z,5.14
2018-09-29T23:58:19.761Z,5.21
